Manhattan Elite — WDG9307 — position and weather

sailwx.info

Track history (hours):
 
Tides and Currents Weather Stations Pressure Air Temp Water Temp Dewpoint Dewpoint Depression Visibility Wind Speed Wind Dir Waves Ship Positions

Manhattan Elite

Owner: SPIRIT CRUISES LLC, New York, NY. More information available from US FCC via Universal Licensing System and Coast Guard Vessel Documentation Center.

Last reported at 2017-Oct-19 05:29 UTC. Time now 2017-Oct-19 05:45 UTC.
Position N 40°45' W 074°01'.

Length 20 m; draft 3 m.

Type: Ship. MMSI: 367586480.

Date/timePositionNaut miles runAvg speedWind from/ knotsBaromVisibWave heightAir tempDewpointWater temp
2017-Oct-19 05:29N 40°45' W 074°01'0 0.0
2017-Oct-19 04:57N 40°45' W 074°01'0 0.0
2017-Oct-19 04:29N 40°45' W 074°01'0 0.0
2017-Oct-19 03:54N 40°45' W 074°01'0 0.0
2017-Oct-19 03:30N 40°45' W 074°01'0 0.0
2017-Oct-19 02:58N 40°45' W 074°01'0 0.0
2017-Oct-19 02:27N 40°45' W 074°01'0 0.0
2017-Oct-19 01:59N 40°45' W 074°01'0 0.0
2017-Oct-19 01:27N 40°45' W 074°01'0 0.0
2017-Oct-19 00:56N 40°45' W 074°01'0 0.0
2017-Oct-19 00:23N 40°45' W 074°01'0 0.0
2017-Oct-18 23:52N 40°45' W 074°01'1 2.9
2017-Oct-18 23:30N 40°44' W 074°01'3 5.4
2017-Oct-18 23:00N 40°41' W 074°02'3 5.4
2017-Oct-18 22:31N 40°42' W 073°59'2 4.0
2017-Oct-18 22:01N 40°44' W 073°58'3 6.7
2017-Oct-18 21:31N 40°42' W 074°01'3 5.4
2017-Oct-18 21:00N 40°45' W 074°01'0 0.0
2017-Oct-18 20:25N 40°45' W 074°01'0 0.0
2017-Oct-18 20:00N 40°45' W 074°01'0 0.0
2017-Oct-18 19:29N 40°45' W 074°01'0 0.0
2017-Oct-18 18:59N 40°45' W 074°01'0 0.0
2017-Oct-18 18:26N 40°45' W 074°01'0 0.0
2017-Oct-18 17:58N 40°45' W 074°01'0 0.0
2017-Oct-18 17:28N 40°45' W 074°01'0 0.0
2017-Oct-18 16:58N 40°45' W 074°01'0 0.0
2017-Oct-18 16:23N 40°45' W 074°01'0 0.0
2017-Oct-18 16:00N 40°45' W 074°01'0 0.0
2017-Oct-18 15:29N 40°45' W 074°01'0 0.0
2017-Oct-18 14:58N 40°45' W 074°01'0 0.0
2017-Oct-18 13:54N 40°45' W 074°01'0 0.0
2017-Oct-18 13:28N 40°45' W 074°01'0 0.0
2017-Oct-18 12:55N 40°45' W 074°01'0 0.0
2017-Oct-18 12:26N 40°45' W 074°01'0 0.0
2017-Oct-18 11:53N 40°45' W 074°01'0 0.0
2017-Oct-18 11:30N 40°45' W 074°01'0 0.0
2017-Oct-18 10:59N 40°45' W 074°01'0 0.0
2017-Oct-18 10:25N 40°45' W 074°01'0 0.0
2017-Oct-18 09:54N 40°45' W 074°01'0 0.0
2017-Oct-18 09:27N 40°45' W 074°01'0 0.0
2017-Oct-18 08:56N 40°45' W 074°01'0 0.0
2017-Oct-18 08:24N 40°45' W 074°01'0 0.0
2017-Oct-18 07:53N 40°45' W 074°01'0 0.0
2017-Oct-18 07:29N 40°45' W 074°01'0 0.0
2017-Oct-18 06:56N 40°45' W 074°01'0 0.0
2017-Oct-18 06:24N 40°45' W 074°01'0 0.0
2017-Oct-18 05:57N 40°45' W 074°01'0 0.0
2017-Oct-18 05:30N 40°45' W 074°01'0 0.0
2017-Oct-18 04:58N 40°45' W 074°01'0 0.0
2017-Oct-18 04:29N 40°45' W 074°01'0 0.0
2017-Oct-18 03:54N 40°45' W 074°01'0 0.0
2017-Oct-18 03:28N 40°45' W 074°01'0 0.0
2017-Oct-18 02:49N 40°45' W 074°01'0 0.0
2017-Oct-18 02:30N 40°45' W 074°01'0 0.0
2017-Oct-18 01:57N 40°45' W 074°01'0 0.0
2017-Oct-18 01:28N 40°45' W 074°01'0 0.0
2017-Oct-18 00:58N 40°45' W 074°01'0 0.0
2017-Oct-18 00:28N 40°45' W 074°01'0 0.0
2017-Oct-18 00:00N 40°45' W 074°01'0 0.0
2017-Oct-17 23:30N 40°45' W 074°01'0 0.0
2017-Oct-17 22:57N 40°45' W 074°01'0 0.0
2017-Oct-17 22:23N 40°45' W 074°01'0 0.0
2017-Oct-17 22:00N 40°45' W 074°01'0 0.0
2017-Oct-17 21:30N 40°45' W 074°01'0 0.0
2017-Oct-17 20:55N 40°45' W 074°01'0 0.0
2017-Oct-17 20:21N 40°45' W 074°01'0 0.0
2017-Oct-17 20:00N 40°45' W 074°01'0 0.0
2017-Oct-17 19:27N 40°45' W 074°01'0 0.0
2017-Oct-17 18:59N 40°45' W 074°01'0 0.0
2017-Oct-17 18:26N 40°45' W 074°01'0 0.0
2017-Oct-17 18:00N 40°45' W 074°01'0 0.0
2017-Oct-17 17:30N 40°45' W 074°01'0 0.0
2017-Oct-17 16:56N 40°45' W 074°01'0 0.0
2017-Oct-17 16:26N 40°45' W 074°01'0 0.0
2017-Oct-17 15:54N 40°45' W 074°01'0 0.0
2017-Oct-17 15:28N 40°45' W 074°01'0 0.0
2017-Oct-17 14:59N 40°45' W 074°01'0 0.0
2017-Oct-17 14:23N 40°45' W 074°01'0 0.0
2017-Oct-17 13:57N 40°45' W 074°01'0 0.0
2017-Oct-17 13:28N 40°45' W 074°01'0 0.0
2017-Oct-17 12:58N 40°45' W 074°01'0 0.0
2017-Oct-17 12:23N 40°45' W 074°01'0 0.0
2017-Oct-17 11:57N 40°45' W 074°01'0 0.0
2017-Oct-17 11:30N 40°45' W 074°01'0 0.0
2017-Oct-17 11:00N 40°45' W 074°01'0 0.0
2017-Oct-17 10:27N 40°45' W 074°01'0 0.0
2017-Oct-17 10:00N 40°45' W 074°01'0 0.0
2017-Oct-17 09:24N 40°45' W 074°01'0 0.0
2017-Oct-17 08:56N 40°45' W 074°01'0 0.0
2017-Oct-17 08:26N 40°45' W 074°01'0 0.0
2017-Oct-17 07:59N 40°45' W 074°01'0 0.0
2017-Oct-17 07:29N 40°45' W 074°01'0 0.0
2017-Oct-17 06:50N 40°45' W 074°01'0 0.0
2017-Oct-17 06:24N 40°45' W 074°01'0 0.0
2017-Oct-17 05:57N 40°45' W 074°01'0 0.0
2017-Oct-17 05:30N 40°45' W 074°01'0 0.0
2017-Oct-17 04:58N 40°45' W 074°01'0 0.0
2017-Oct-17 04:25N 40°45' W 074°01'0 0.0
2017-Oct-17 03:58N 40°45' W 074°01'0 0.0
2017-Oct-17 03:15N 40°45' W 074°01'0 0.0
2017-Oct-17 02:58N 40°45' W 074°01'0 0.0
2017-Oct-17 02:29N 40°45' W 074°01'0 0.0
2017-Oct-17 01:53N 40°45' W 074°01'0 0.0
2017-Oct-17 01:30N 40°45' W 074°01'0 0.0
2017-Oct-17 00:56N 40°45' W 074°01'0 0.0
2017-Oct-17 00:26N 40°45' W 074°01'0 0.0
2017-Oct-16 23:57N 40°45' W 074°01'0 0.0
2017-Oct-16 23:27N 40°45' W 074°01'0 0.0
2017-Oct-16 22:55N 40°45' W 074°01'0 0.0
2017-Oct-16 22:29N 40°45' W 074°01'0 0.0
2017-Oct-16 22:00N 40°45' W 074°01'0 0.0
2017-Oct-16 21:27N 40°45' W 074°01'0 0.0
2017-Oct-16 20:55N 40°45' W 074°01'0 0.0
2017-Oct-16 20:24N 40°45' W 074°01'0 0.0
2017-Oct-16 19:59N 40°45' W 074°01'0 0.0
2017-Oct-16 19:30N 40°45' W 074°01'0 0.0
2017-Oct-16 18:59N 40°45' W 074°01'0 0.0
2017-Oct-16 18:29N 40°45' W 074°01'0 0.0
2017-Oct-16 17:59N 40°45' W 074°01'0 0.0
2017-Oct-16 17:20N 40°45' W 074°01'1 2.5
2017-Oct-16 17:00N 40°46' W 074°01'0 0.2
2017-Oct-16 16:30N 40°46' W 074°01'0 0.2
2017-Oct-16 16:00N 40°46' W 074°01'1 1.6
2017-Oct-16 15:30N 40°45' W 074°01'0 0.0
2017-Oct-16 15:00N 40°45' W 074°01'0 0.0
2017-Oct-16 14:29N 40°45' W 074°01'0 0.0
2017-Oct-16 13:29N 40°45' W 074°01'0 0.0
2017-Oct-16 12:58N 40°45' W 074°01'0 0.0
2017-Oct-16 12:25N 40°45' W 074°01'0 0.0
2017-Oct-16 12:00N 40°45' W 074°01'0 0.0
2017-Oct-16 11:30N 40°45' W 074°01'0 0.0
2017-Oct-16 11:00N 40°45' W 074°01'0 0.0
2017-Oct-16 10:29N 40°45' W 074°01'0 0.0
2017-Oct-16 10:00N 40°45' W 074°01'0 0.0
2017-Oct-16 09:28N 40°45' W 074°01'0 0.0
2017-Oct-16 08:57N 40°45' W 074°01'0 0.0
2017-Oct-16 08:30N 40°45' W 074°01'0 0.0
2017-Oct-16 07:59N 40°45' W 074°01'0 0.0
2017-Oct-16 07:30N 40°45' W 074°01'0 0.0
2017-Oct-16 06:59N 40°45' W 074°01'0 0.0
2017-Oct-16 06:27N 40°45' W 074°01'0 0.0
2017-Oct-16 05:58N 40°45' W 074°01'0 0.0
2017-Oct-16 05:28N 40°45' W 074°01'0 0.0
2017-Oct-16 04:58N 40°45' W 074°01'0 0.0
2017-Oct-16 04:28N 40°45' W 074°01'0 0.0
2017-Oct-16 03:59N 40°45' W 074°01'0 0.0
2017-Oct-16 03:30N 40°45' W 074°01'0 0.0
2017-Oct-16 02:58N 40°45' W 074°01'0 0.0
2017-Oct-16 02:29N 40°45' W 074°01'0 0.0
2017-Oct-16 01:59N 40°45' W 074°01'0 0.0
2017-Oct-16 01:30N 40°45' W 074°01'0 0.0
2017-Oct-16 00:56N 40°45' W 074°01'0 0.0
2017-Oct-16 00:26N 40°45' W 074°01'0 0.0
2017-Oct-15 23:59N 40°45' W 074°01'0 0.0
2017-Oct-15 23:29N 40°45' W 074°01'0 0.0
2017-Oct-15 22:58N 40°45' W 074°01'0 0.0
2017-Oct-15 22:26N 40°45' W 074°01'0 0.0
2017-Oct-15 21:59N 40°45' W 074°01'0 0.0
2017-Oct-15 21:28N 40°45' W 074°01'0 0.0
2017-Oct-15 20:58N 40°45' W 074°01'0 0.0
2017-Oct-15 20:26N 40°45' W 074°01'0 0.0
2017-Oct-15 19:59N 40°45' W 074°01'0 0.0
2017-Oct-15 19:28N 40°45' W 074°01'0 0.0
2017-Oct-15 18:58N 40°45' W 074°01'0 0.0
2017-Oct-15 18:29N 40°45' W 074°01'0 0.0
2017-Oct-15 17:58N 40°45' W 074°01'0 0.0
2017-Oct-15 17:30N 40°45' W 074°01'0 0.0
2017-Oct-15 16:55N 40°45' W 074°01'0 0.0
2017-Oct-15 16:23N 40°45' W 074°01'0 0.0
2017-Oct-15 15:55N 40°45' W 074°01'0 0.0
2017-Oct-15 15:28N 40°45' W 074°01'0 0.0
2017-Oct-15 14:58N 40°45' W 074°01'0 0.0
2017-Oct-15 14:00N 40°45' W 074°01'0 0.0
2017-Oct-15 13:28N 40°45' W 074°01'0 0.0
2017-Oct-15 12:58N 40°45' W 074°01'0 0.0
2017-Oct-15 12:28N 40°45' W 074°01'0 0.0
2017-Oct-15 11:59N 40°45' W 074°01'0 0.0
2017-Oct-15 11:29N 40°45' W 074°01'0 0.0
2017-Oct-15 10:57N 40°45' W 074°01'0 0.0
2017-Oct-15 10:29N 40°45' W 074°01'0 0.0
2017-Oct-15 09:53N 40°45' W 074°01'0 0.0
2017-Oct-15 09:27N 40°45' W 074°01'0 0.0
2017-Oct-15 09:00N 40°45' W 074°01'0 0.0
2017-Oct-15 08:24N 40°45' W 074°01'0 0.0
2017-Oct-15 08:00N 40°45' W 074°01'0 0.0
2017-Oct-15 07:29N 40°45' W 074°01'0 0.0
2017-Oct-15 06:58N 40°45' W 074°01'0 0.0
2017-Oct-15 06:27N 40°45' W 074°01'0 0.0
2017-Oct-15 05:53N 40°45' W 074°01'0 0.0
2017-Oct-15 05:28N 40°45' W 074°01'0 0.0
2017-Oct-15 04:58N 40°45' W 074°01'0 0.0
2017-Oct-15 04:27N 40°45' W 074°01'0 0.0
2017-Oct-15 03:57N 40°45' W 074°01'0 0.0
2017-Oct-15 03:30N 40°45' W 074°01'0 0.0
2017-Oct-15 02:59N 40°45' W 074°01'0 0.0
2017-Oct-15 02:25N 40°45' W 074°01'0 0.0
2017-Oct-15 01:54N 40°45' W 074°01'0 0.0
2017-Oct-15 01:29N 40°45' W 074°01'0 0.0
2017-Oct-15 00:59N 40°45' W 074°01'0 0.0
2017-Oct-15 00:28N 40°45' W 074°01'1 2.3
2017-Oct-15 00:01N 40°44' W 074°01'3 5.9
2017-Oct-14 23:30N 40°41' W 074°03'3 5.1
2017-Oct-14 23:00N 40°42' W 073°60'2 3.2
2017-Oct-14 22:31N 40°43' W 074°01'3 5.0
2017-Oct-14 22:00N 40°46' W 074°01'1 1.8
2017-Oct-14 21:29N 40°45' W 074°01'0 0.0
2017-Oct-14 21:00N 40°45' W 074°01'0 0.0
2017-Oct-14 20:30N 40°45' W 074°01'0 0.0
2017-Oct-14 20:00N 40°45' W 074°01'0 0.0
2017-Oct-14 19:30N 40°45' W 074°01'0 0.0
2017-Oct-14 19:00N 40°45' W 074°01'0 0.0
2017-Oct-14 18:28N 40°45' W 074°01'0 0.0
2017-Oct-14 18:00N 40°45' W 074°01'0 0.0
2017-Oct-14 17:25N 40°45' W 074°01'0 0.0
2017-Oct-14 16:57N 40°45' W 074°01'0 0.0
2017-Oct-14 16:25N 40°45' W 074°01'0 0.0
2017-Oct-14 16:00N 40°45' W 074°01'0 0.0
2017-Oct-14 15:30N 40°45' W 074°01'0 0.0
2017-Oct-14 14:58N 40°45' W 074°01'0 0.0
2017-Oct-14 14:23N 40°45' W 074°01'0 0.0
2017-Oct-14 13:57N 40°45' W 074°01'0 0.0
2017-Oct-14 13:28N 40°45' W 074°01'0 0.0
2017-Oct-14 12:57N 40°45' W 074°01'0 0.0
2017-Oct-14 12:28N 40°45' W 074°01'0 0.0
2017-Oct-14 11:54N 40°45' W 074°01'0 0.0
2017-Oct-14 11:28N 40°45' W 074°01'0 0.0
2017-Oct-14 10:59N 40°45' W 074°01'0 0.0
2017-Oct-14 10:23N 40°45' W 074°01'0 0.0
2017-Oct-14 10:00N 40°45' W 074°01'0 0.0
2017-Oct-14 09:30N 40°45' W 074°01'0 0.0
2017-Oct-14 08:58N 40°45' W 074°01'0 0.0
2017-Oct-14 08:28N 40°45' W 074°01'0 0.0
2017-Oct-14 07:54N 40°45' W 074°01'0 0.0
2017-Oct-14 07:28N 40°45' W 074°01'0 0.0
2017-Oct-14 06:58N 40°45' W 074°01'0 0.0
2017-Oct-14 06:27N 40°45' W 074°01'0 0.0
2017-Oct-14 05:57N 40°45' W 074°01'0 0.0
2017-Oct-14 05:30N 40°45' W 074°01'0 0.0
2017-Oct-14 04:55N 40°45' W 074°01'0 0.0
2017-Oct-14 04:24N 40°45' W 074°01'0 0.0
2017-Oct-14 04:00N 40°45' W 074°01'0 0.0
2017-Oct-14 03:30N 40°45' W 074°01'0 0.0
2017-Oct-14 02:58N 40°45' W 074°01'0 0.0
2017-Oct-14 02:24N 40°45' W 074°01'0 0.0
2017-Oct-14 01:59N 40°45' W 074°01'0 0.0
2017-Oct-14 01:29N 40°45' W 074°01'0 0.0
2017-Oct-14 00:58N 40°45' W 074°01'0 0.0
2017-Oct-14 00:23N 40°45' W 074°01'0 0.0
2017-Oct-13 23:58N 40°45' W 074°01'0 0.0
2017-Oct-13 23:30N 40°45' W 074°01'0 0.0
2017-Oct-13 22:55N 40°45' W 074°01'0 0.0
2017-Oct-13 22:29N 40°45' W 074°01'0 0.0
2017-Oct-13 21:53N 40°45' W 074°01'0 0.0
2017-Oct-13 21:28N 40°45' W 074°01'0 0.0
2017-Oct-13 20:55N 40°45' W 074°01'0 0.0
2017-Oct-13 20:23N 40°45' W 074°01'0 0.0
2017-Oct-13 19:45N 40°45' W 074°01'0 0.0
2017-Oct-13 19:29N 40°45' W 074°01'0 0.0
2017-Oct-13 18:57N 40°45' W 074°01'0 0.0
2017-Oct-13 18:25N 40°45' W 074°01'0 0.0
2017-Oct-13 17:54N 40°45' W 074°01'0 0.0
2017-Oct-13 17:30N 40°45' W 074°01'0 0.0
2017-Oct-13 16:58N 40°45' W 074°01'0 0.0
2017-Oct-13 16:26N 40°45' W 074°01'0 0.0
2017-Oct-13 15:59N 40°45' W 074°01'0 0.0
2017-Oct-13 15:28N 40°45' W 074°01'0 0.0
2017-Oct-13 14:55N 40°45' W 074°01'0 0.0
2017-Oct-13 14:26N 40°45' W 074°01'0 0.0
2017-Oct-13 13:59N 40°45' W 074°01'0 0.0
2017-Oct-13 13:29N 40°45' W 074°01'0 0.0
2017-Oct-13 12:58N 40°45' W 074°01'0 0.0
2017-Oct-13 12:25N 40°45' W 074°01'0 0.0
2017-Oct-13 11:54N 40°45' W 074°01'0 0.0
2017-Oct-13 11:30N 40°45' W 074°01'0 0.0
2017-Oct-13 10:56N 40°45' W 074°01'0 0.0
2017-Oct-13 10:30N 40°45' W 074°01'0 0.0
2017-Oct-13 10:00N 40°45' W 074°01'0 0.0
2017-Oct-13 09:28N 40°45' W 074°01'0 0.0
2017-Oct-13 08:58N 40°45' W 074°01'0 0.0
2017-Oct-13 08:27N 40°45' W 074°01'0 0.0
2017-Oct-13 07:58N 40°45' W 074°01'0 0.0
2017-Oct-13 07:28N 40°45' W 074°01'0 0.0
2017-Oct-13 06:56N 40°45' W 074°01'0 0.0
2017-Oct-13 06:27N 40°45' W 074°01'0 0.0
2017-Oct-13 05:59N 40°45' W 074°01'0 0.0
2017-Oct-13 05:30N 40°45' W 074°01'0 0.0
2017-Oct-13 04:59N 40°45' W 074°01'0 0.0
2017-Oct-13 04:27N 40°45' W 074°01'0 0.0
2017-Oct-13 03:59N 40°45' W 074°01'0 0.0
2017-Oct-13 03:29N 40°45' W 074°01'0 0.0
2017-Oct-13 02:57N 40°45' W 074°01'0 0.0
2017-Oct-13 02:29N 40°45' W 074°01'0 0.0
2017-Oct-13 01:59N 40°45' W 074°01'0 0.0
2017-Oct-13 01:27N 40°45' W 074°01'0 0.0
2017-Oct-13 01:00N 40°45' W 074°01'1 1.5
2017-Oct-13 00:30N 40°44' W 074°01'2 4.7
2017-Oct-13 00:00N 40°42' W 074°02'1 1.3
2017-Oct-12 23:30N 40°42' W 074°01'2 4.9
2017-Oct-12 23:00N 40°43' W 073°58'2 4.4
2017-Oct-12 22:29N 40°42' W 074°01'3 6.0
2017-Oct-12 22:00N 40°45' W 074°01'0 0.3
2017-Oct-12 21:30N 40°45' W 074°01'0 0.0
2017-Oct-12 21:00N 40°45' W 074°01'0 0.0
2017-Oct-12 20:30N 40°45' W 074°01'0 0.0
2017-Oct-12 20:00N 40°45' W 074°01'0 0.0
2017-Oct-12 19:28N 40°45' W 074°01'0 0.0
2017-Oct-12 19:00N 40°45' W 074°01'0 0.0
2017-Oct-12 18:26N 40°45' W 074°01'0 0.0
2017-Oct-12 17:59N 40°45' W 074°01'0 0.0
2017-Oct-12 17:30N 40°45' W 074°01'0 0.0
2017-Oct-12 16:57N 40°45' W 074°01'0 0.0
2017-Oct-12 16:24N 40°45' W 074°01'0 0.0
2017-Oct-12 15:56N 40°45' W 074°01'0 0.0
2017-Oct-12 15:30N 40°45' W 074°01'0 0.0
2017-Oct-12 14:57N 40°45' W 074°01'0 0.0
2017-Oct-12 14:27N 40°45' W 074°01'0 0.0
2017-Oct-12 13:53N 40°45' W 074°01'0 0.0
2017-Oct-12 13:30N 40°45' W 074°01'0 0.0
2017-Oct-12 12:56N 40°45' W 074°01'0 0.0
2017-Oct-12 12:26N 40°45' W 074°01'0 0.0
2017-Oct-12 11:51N 40°45' W 074°01'0 0.0
2017-Oct-12 11:30N 40°45' W 074°01'0 0.0
2017-Oct-12 10:57N 40°45' W 074°01'0 0.0
2017-Oct-12 10:24N 40°45' W 074°01'0 0.0
2017-Oct-12 09:54N 40°45' W 074°01'0 0.0
2017-Oct-12 09:28N 40°45' W 074°01'0 0.0
2017-Oct-12 08:56N 40°45' W 074°01'0 0.0
2017-Oct-12 08:27N 40°45' W 074°01'0 0.0
2017-Oct-12 08:00N 40°45' W 074°01'0 0.0
2017-Oct-12 07:25N 40°45' W 074°01'0 0.0
2017-Oct-12 06:59N 40°45' W 074°01'0 0.0
2017-Oct-12 06:25N 40°45' W 074°01'0 0.0
2017-Oct-12 05:59N 40°45' W 074°01'0 0.0
2017-Oct-12 05:28N 40°45' W 074°01'0 0.0
2017-Oct-12 04:55N 40°45' W 074°01'0 0.0
2017-Oct-12 04:28N 40°45' W 074°01'0 0.0
2017-Oct-12 03:59N 40°45' W 074°01'0 0.0
2017-Oct-12 03:29N 40°45' W 074°01'0 0.0
2017-Oct-12 02:58N 40°45' W 074°01'0 0.0
2017-Oct-12 02:28N 40°45' W 074°01'0 0.0
2017-Oct-12 01:57N 40°45' W 074°01'0 0.9
2017-Oct-12 01:30N 40°44' W 074°01'2 4.8
2017-Oct-12 01:00N 40°42' W 074°02'0 0.6
2017-Oct-12 00:30N 40°42' W 074°01'3 6.0
2017-Oct-12 00:00N 40°44' W 073°58'2 4.1
2017-Oct-11 23:30N 40°42' W 073°60'3 5.1
2017-Oct-11 23:00N 40°45' W 074°01'0 0.4
2017-Oct-11 22:30N 40°45' W 074°01'0 0.0
2017-Oct-11 22:00N 40°45' W 074°01'0 0.0
2017-Oct-11 21:29N 40°45' W 074°01'0 0.0
2017-Oct-11 20:56N 40°45' W 074°01'0 0.0
2017-Oct-11 20:24N 40°45' W 074°01'0 0.0
2017-Oct-11 20:00N 40°45' W 074°01'0 0.0
2017-Oct-11 19:29N 40°45' W 074°01'0 0.0
2017-Oct-11 18:58N 40°45' W 074°01'0 0.0
2017-Oct-11 18:29N 40°45' W 074°01'0 0.0
2017-Oct-11 17:59N 40°45' W 074°01'0 0.0
2017-Oct-11 17:30N 40°45' W 074°01'0 0.0
2017-Oct-11 16:55N 40°45' W 074°01'2 0.1
2017-Oct-11 00:00N 40°44' W 073°58'2 3.4
2017-Oct-10 23:30N 40°42' W 073°59'2 3.9
2017-Oct-10 23:01N 40°44' W 074°01'1 2.6
2017-Oct-10 22:31N 40°45' W 074°01'0 0.0
2017-Oct-10 21:59N 40°45' W 074°01'0 0.0
2017-Oct-10 21:30N 40°45' W 074°01'0 0.0
2017-Oct-10 21:00N 40°45' W 074°01'0 0.0
2017-Oct-10 20:30N 40°45' W 074°01'0 0.0
2017-Oct-10 19:58N 40°45' W 074°01'0 0.0
2017-Oct-10 19:30N 40°45' W 074°01'0 0.0
2017-Oct-10 18:58N 40°45' W 074°01'0 0.0
2017-Oct-10 18:25N 40°45' W 074°01'0 0.0
2017-Oct-10 17:53N 40°45' W 074°01'0 0.0
2017-Oct-10 17:27N 40°45' W 074°01'0 0.0
2017-Oct-10 17:00N 40°45' W 074°01'0 0.0
2017-Oct-10 16:23N 40°45' W 074°01'0 0.0
2017-Oct-10 16:00N 40°45' W 074°01'0 0.0
2017-Oct-10 15:30N 40°45' W 074°01'0 0.0
2017-Oct-10 14:56N 40°45' W 074°01'0 0.0
2017-Oct-10 13:53N 40°45' W 074°01'0 0.0
2017-Oct-10 13:28N 40°45' W 074°01'0 0.0
2017-Oct-10 12:55N 40°45' W 074°01'0 0.0
2017-Oct-10 12:24N 40°45' W 074°01'0 0.0
2017-Oct-10 11:59N 40°45' W 074°01'0 0.0
2017-Oct-10 11:27N 40°45' W 074°01'0 0.0
2017-Oct-10 10:58N 40°45' W 074°01'0 0.0
2017-Oct-10 10:23N 40°45' W 074°01'0 0.0
2017-Oct-10 09:57N 40°45' W 074°01'0 0.0
2017-Oct-10 09:30N 40°45' W 074°01'0 0.0
2017-Oct-10 08:58N 40°45' W 074°01'0 0.0
2017-Oct-10 08:28N 40°45' W 074°01'0 0.0
2017-Oct-10 08:00N 40°45' W 074°01'0 0.0
2017-Oct-10 07:28N 40°45' W 074°01'0 0.0
2017-Oct-10 06:58N 40°45' W 074°01'0 0.0
2017-Oct-10 06:29N 40°45' W 074°01'0 0.0
2017-Oct-10 05:54N 40°45' W 074°01'0 0.0
2017-Oct-10 05:30N 40°45' W 074°01'0 0.0
2017-Oct-10 04:56N 40°45' W 074°01'0 0.0
2017-Oct-10 04:24N 40°45' W 074°01'0 0.0
2017-Oct-10 03:54N 40°45' W 074°01'0 0.0
2017-Oct-10 03:29N 40°45' W 074°01'0 0.0
2017-Oct-10 02:59N 40°45' W 074°01'0 0.0
2017-Oct-10 02:29N 40°45' W 074°01'0 0.0
2017-Oct-10 02:00N 40°45' W 074°01'0 0.0
2017-Oct-10 01:30N 40°45' W 074°01'0 0.0
2017-Oct-10 00:56N 40°45' W 074°01'0 0.0
2017-Oct-10 00:24N 40°45' W 074°01'0 0.0
2017-Oct-10 00:00N 40°45' W 074°01'0 0.0
2017-Oct-09 23:29N 40°45' W 074°01'0 0.0
2017-Oct-09 22:59N 40°45' W 074°01'0 0.0
2017-Oct-09 22:29N 40°45' W 074°01'0 0.0
2017-Oct-09 21:53N 40°45' W 074°01'0 0.0
2017-Oct-09 21:30N 40°45' W 074°01'0 0.0
2017-Oct-09 20:55N 40°45' W 074°01'0 0.0
2017-Oct-09 20:24N 40°45' W 074°01'0 0.0
2017-Oct-09 20:00N 40°45' W 074°01'0 0.0
2017-Oct-09 19:28N 40°45' W 074°01'0 0.0
2017-Oct-09 18:55N 40°45' W 074°01'0 0.0
2017-Oct-09 18:30N 40°45' W 074°01'0 0.0
2017-Oct-09 18:00N 40°45' W 074°01'1 1.7
2017-Oct-09 17:30N 40°44' W 074°01'3 5.8
2017-Oct-09 17:00N 40°41' W 074°02'3 5.4
2017-Oct-09 16:30N 40°44' W 074°01'1 2.1
2017-Oct-09 16:00N 40°45' W 074°01'0 0.0
2017-Oct-09 15:30N 40°45' W 074°01'0 0.0
2017-Oct-09 15:00N 40°45' W 074°01'0 0.0
2017-Oct-09 14:30N 40°45' W 074°01'0 0.0
2017-Oct-09 13:58N 40°45' W 074°01'0 0.0
2017-Oct-09 13:27N 40°45' W 074°01'0 0.0
2017-Oct-09 12:57N 40°45' W 074°01'0 0.0
2017-Oct-09 12:07N 40°45' W 074°01'0 0.0
2017-Oct-09 11:59N 40°45' W 074°01'0 0.0
2017-Oct-09 11:29N 40°45' W 074°01'0 0.0
2017-Oct-09 10:58N 40°45' W 074°01'0 0.0
2017-Oct-09 10:23N 40°45' W 074°01'0 0.0
2017-Oct-09 09:59N 40°45' W 074°01'0 0.0
2017-Oct-09 09:30N 40°45' W 074°01'0 0.0
2017-Oct-09 08:59N 40°45' W 074°01'0 0.0
2017-Oct-09 08:27N 40°45' W 074°01'0 0.0
2017-Oct-09 07:57N 40°45' W 074°01'0 0.0
2017-Oct-09 07:29N 40°45' W 074°01'0 0.0
2017-Oct-09 06:57N 40°45' W 074°01'0 0.0
2017-Oct-09 06:23N 40°45' W 074°01'0 0.0
2017-Oct-09 05:54N 40°45' W 074°01'0 0.0
2017-Oct-09 05:30N 40°45' W 074°01'  
Track history (hours):
 
Tides and Currents Weather Stations Pressure Air Temp Water Temp Dewpoint Dewpoint Depression Visibility Wind Speed Wind Dir Waves Ship Positions

Manhattan Elite

Owner: SPIRIT CRUISES LLC, New York, NY. More information available from US FCC via Universal Licensing System and Coast Guard Vessel Documentation Center.

Last reported at 2017-Oct-19 05:29 UTC. Time now 2017-Oct-19 05:45 UTC.
Position N 40°45' W 074°01'.

Length 20 m; draft 3 m.

Type: Ship. MMSI: 367586480.

Date/timePositionNaut miles runAvg speedWind from/ knotsBaromVisibWave heightAir tempDewpointWater temp
2017-Oct-19 05:29N 40°45' W 074°01'0 0.0
2017-Oct-19 04:57N 40°45' W 074°01'0 0.0
2017-Oct-19 04:29N 40°45' W 074°01'0 0.0
2017-Oct-19 03:54N 40°45' W 074°01'0 0.0
2017-Oct-19 03:30N 40°45' W 074°01'0 0.0
2017-Oct-19 02:58N 40°45' W 074°01'0 0.0
2017-Oct-19 02:27N 40°45' W 074°01'0 0.0
2017-Oct-19 01:59N 40°45' W 074°01'0 0.0
2017-Oct-19 01:27N 40°45' W 074°01'0 0.0
2017-Oct-19 00:56N 40°45' W 074°01'0 0.0
2017-Oct-19 00:23N 40°45' W 074°01'0 0.0
2017-Oct-18 23:52N 40°45' W 074°01'1 2.9
2017-Oct-18 23:30N 40°44' W 074°01'3 5.4
2017-Oct-18 23:00N 40°41' W 074°02'3 5.4
2017-Oct-18 22:31N 40°42' W 073°59'2 4.0
2017-Oct-18 22:01N 40°44' W 073°58'3 6.7
2017-Oct-18 21:31N 40°42' W 074°01'3 5.4
2017-Oct-18 21:00N 40°45' W 074°01'0 0.0
2017-Oct-18 20:25N 40°45' W 074°01'0 0.0
2017-Oct-18 20:00N 40°45' W 074°01'0 0.0
2017-Oct-18 19:29N 40°45' W 074°01'0 0.0
2017-Oct-18 18:59N 40°45' W 074°01'0 0.0
2017-Oct-18 18:26N 40°45' W 074°01'0 0.0
2017-Oct-18 17:58N 40°45' W 074°01'0 0.0
2017-Oct-18 17:28N 40°45' W 074°01'0 0.0
2017-Oct-18 16:58N 40°45' W 074°01'0 0.0
2017-Oct-18 16:23N 40°45' W 074°01'0 0.0
2017-Oct-18 16:00N 40°45' W 074°01'0 0.0
2017-Oct-18 15:29N 40°45' W 074°01'0 0.0
2017-Oct-18 14:58N 40°45' W 074°01'0 0.0
2017-Oct-18 13:54N 40°45' W 074°01'0 0.0
2017-Oct-18 13:28N 40°45' W 074°01'0 0.0
2017-Oct-18 12:55N 40°45' W 074°01'0 0.0
2017-Oct-18 12:26N 40°45' W 074°01'0 0.0
2017-Oct-18 11:53N 40°45' W 074°01'0 0.0
2017-Oct-18 11:30N 40°45' W 074°01'0 0.0
2017-Oct-18 10:59N 40°45' W 074°01'0 0.0
2017-Oct-18 10:25N 40°45' W 074°01'0 0.0
2017-Oct-18 09:54N 40°45' W 074°01'0 0.0
2017-Oct-18 09:27N 40°45' W 074°01'0 0.0
2017-Oct-18 08:56N 40°45' W 074°01'0 0.0
2017-Oct-18 08:24N 40°45' W 074°01'0 0.0
2017-Oct-18 07:53N 40°45' W 074°01'0 0.0
2017-Oct-18 07:29N 40°45' W 074°01'0 0.0
2017-Oct-18 06:56N 40°45' W 074°01'0 0.0
2017-Oct-18 06:24N 40°45' W 074°01'0 0.0
2017-Oct-18 05:57N 40°45' W 074°01'0 0.0
2017-Oct-18 05:30N 40°45' W 074°01'0 0.0
2017-Oct-18 04:58N 40°45' W 074°01'0 0.0
2017-Oct-18 04:29N 40°45' W 074°01'0 0.0
2017-Oct-18 03:54N 40°45' W 074°01'0 0.0
2017-Oct-18 03:28N 40°45' W 074°01'0 0.0
2017-Oct-18 02:49N 40°45' W 074°01'0 0.0
2017-Oct-18 02:30N 40°45' W 074°01'0 0.0
2017-Oct-18 01:57N 40°45' W 074°01'0 0.0
2017-Oct-18 01:28N 40°45' W 074°01'0 0.0
2017-Oct-18 00:58N 40°45' W 074°01'0 0.0
2017-Oct-18 00:28N 40°45' W 074°01'0 0.0
2017-Oct-18 00:00N 40°45' W 074°01'0 0.0
2017-Oct-17 23:30N 40°45' W 074°01'0 0.0
2017-Oct-17 22:57N 40°45' W 074°01'0 0.0
2017-Oct-17 22:23N 40°45' W 074°01'0 0.0
2017-Oct-17 22:00N 40°45' W 074°01'0 0.0
2017-Oct-17 21:30N 40°45' W 074°01'0 0.0
2017-Oct-17 20:55N 40°45' W 074°01'0 0.0
2017-Oct-17 20:21N 40°45' W 074°01'0 0.0
2017-Oct-17 20:00N 40°45' W 074°01'0 0.0
2017-Oct-17 19:27N 40°45' W 074°01'0 0.0
2017-Oct-17 18:59N 40°45' W 074°01'0 0.0
2017-Oct-17 18:26N 40°45' W 074°01'0 0.0
2017-Oct-17 18:00N 40°45' W 074°01'0 0.0
2017-Oct-17 17:30N 40°45' W 074°01'0 0.0
2017-Oct-17 16:56N 40°45' W 074°01'0 0.0
2017-Oct-17 16:26N 40°45' W 074°01'0 0.0
2017-Oct-17 15:54N 40°45' W 074°01'0 0.0
2017-Oct-17 15:28N 40°45' W 074°01'0 0.0
2017-Oct-17 14:59N 40°45' W 074°01'0 0.0
2017-Oct-17 14:23N 40°45' W 074°01'0 0.0
2017-Oct-17 13:57N 40°45' W 074°01'0 0.0
2017-Oct-17 13:28N 40°45' W 074°01'0 0.0
2017-Oct-17 12:58N 40°45' W 074°01'0 0.0
2017-Oct-17 12:23N 40°45' W 074°01'0 0.0
2017-Oct-17 11:57N 40°45' W 074°01'0 0.0
2017-Oct-17 11:30N 40°45' W 074°01'0 0.0
2017-Oct-17 11:00N 40°45' W 074°01'0 0.0
2017-Oct-17 10:27N 40°45' W 074°01'0 0.0
2017-Oct-17 10:00N 40°45' W 074°01'0 0.0
2017-Oct-17 09:24N 40°45' W 074°01'0 0.0
2017-Oct-17 08:56N 40°45' W 074°01'0 0.0
2017-Oct-17 08:26N 40°45' W 074°01'0 0.0
2017-Oct-17 07:59N 40°45' W 074°01'0 0.0
2017-Oct-17 07:29N 40°45' W 074°01'0 0.0
2017-Oct-17 06:50N 40°45' W 074°01'0 0.0
2017-Oct-17 06:24N 40°45' W 074°01'0 0.0
2017-Oct-17 05:57N 40°45' W 074°01'0 0.0
2017-Oct-17 05:30N 40°45' W 074°01'0 0.0
2017-Oct-17 04:58N 40°45' W 074°01'0 0.0
2017-Oct-17 04:25N 40°45' W 074°01'0 0.0
2017-Oct-17 03:58N 40°45' W 074°01'0 0.0
2017-Oct-17 03:15N 40°45' W 074°01'0 0.0
2017-Oct-17 02:58N 40°45' W 074°01'0 0.0
2017-Oct-17 02:29N 40°45' W 074°01'0 0.0
2017-Oct-17 01:53N 40°45' W 074°01'0 0.0
2017-Oct-17 01:30N 40°45' W 074°01'0 0.0
2017-Oct-17 00:56N 40°45' W 074°01'0 0.0
2017-Oct-17 00:26N 40°45' W 074°01'0 0.0
2017-Oct-16 23:57N 40°45' W 074°01'0 0.0
2017-Oct-16 23:27N 40°45' W 074°01'0 0.0
2017-Oct-16 22:55N 40°45' W 074°01'0 0.0
2017-Oct-16 22:29N 40°45' W 074°01'0 0.0
2017-Oct-16 22:00N 40°45' W 074°01'0 0.0
2017-Oct-16 21:27N 40°45' W 074°01'0 0.0
2017-Oct-16 20:55N 40°45' W 074°01'0 0.0
2017-Oct-16 20:24N 40°45' W 074°01'0 0.0
2017-Oct-16 19:59N 40°45' W 074°01'0 0.0
2017-Oct-16 19:30N 40°45' W 074°01'0 0.0
2017-Oct-16 18:59N 40°45' W 074°01'0 0.0
2017-Oct-16 18:29N 40°45' W 074°01'0 0.0
2017-Oct-16 17:59N 40°45' W 074°01'0 0.0
2017-Oct-16 17:20N 40°45' W 074°01'1 2.5
2017-Oct-16 17:00N 40°46' W 074°01'0 0.2
2017-Oct-16 16:30N 40°46' W 074°01'0 0.2
2017-Oct-16 16:00N 40°46' W 074°01'1 1.6
2017-Oct-16 15:30N 40°45' W 074°01'0 0.0
2017-Oct-16 15:00N 40°45' W 074°01'0 0.0
2017-Oct-16 14:29N 40°45' W 074°01'0 0.0
2017-Oct-16 13:29N 40°45' W 074°01'0 0.0
2017-Oct-16 12:58N 40°45' W 074°01'0 0.0
2017-Oct-16 12:25N 40°45' W 074°01'0 0.0
2017-Oct-16 12:00N 40°45' W 074°01'0 0.0
2017-Oct-16 11:30N 40°45' W 074°01'0 0.0
2017-Oct-16 11:00N 40°45' W 074°01'0 0.0
2017-Oct-16 10:29N 40°45' W 074°01'0 0.0
2017-Oct-16 10:00N 40°45' W 074°01'0 0.0
2017-Oct-16 09:28N 40°45' W 074°01'0 0.0
2017-Oct-16 08:57N 40°45' W 074°01'0 0.0
2017-Oct-16 08:30N 40°45' W 074°01'0 0.0
2017-Oct-16 07:59N 40°45' W 074°01'0 0.0
2017-Oct-16 07:30N 40°45' W 074°01'0 0.0
2017-Oct-16 06:59N 40°45' W 074°01'0 0.0
2017-Oct-16 06:27N 40°45' W 074°01'0 0.0
2017-Oct-16 05:58N 40°45' W 074°01'0 0.0
2017-Oct-16 05:28N 40°45' W 074°01'0 0.0
2017-Oct-16 04:58N 40°45' W 074°01'0 0.0
2017-Oct-16 04:28N 40°45' W 074°01'0 0.0
2017-Oct-16 03:59N 40°45' W 074°01'0 0.0
2017-Oct-16 03:30N 40°45' W 074°01'0 0.0
2017-Oct-16 02:58N 40°45' W 074°01'0 0.0
2017-Oct-16 02:29N 40°45' W 074°01'0 0.0
2017-Oct-16 01:59N 40°45' W 074°01'0 0.0
2017-Oct-16 01:30N 40°45' W 074°01'0 0.0
2017-Oct-16 00:56N 40°45' W 074°01'0 0.0
2017-Oct-16 00:26N 40°45' W 074°01'0 0.0
2017-Oct-15 23:59N 40°45' W 074°01'0 0.0
2017-Oct-15 23:29N 40°45' W 074°01'0 0.0
2017-Oct-15 22:58N 40°45' W 074°01'0 0.0
2017-Oct-15 22:26N 40°45' W 074°01'0 0.0
2017-Oct-15 21:59N 40°45' W 074°01'0 0.0
2017-Oct-15 21:28N 40°45' W 074°01'0 0.0
2017-Oct-15 20:58N 40°45' W 074°01'0 0.0
2017-Oct-15 20:26N 40°45' W 074°01'0 0.0
2017-Oct-15 19:59N 40°45' W 074°01'0 0.0
2017-Oct-15 19:28N 40°45' W 074°01'0 0.0
2017-Oct-15 18:58N 40°45' W 074°01'0 0.0
2017-Oct-15 18:29N 40°45' W 074°01'0 0.0
2017-Oct-15 17:58N 40°45' W 074°01'0 0.0
2017-Oct-15 17:30N 40°45' W 074°01'0 0.0
2017-Oct-15 16:55N 40°45' W 074°01'0 0.0
2017-Oct-15 16:23N 40°45' W 074°01'0 0.0
2017-Oct-15 15:55N 40°45' W 074°01'0 0.0
2017-Oct-15 15:28N 40°45' W 074°01'0 0.0
2017-Oct-15 14:58N 40°45' W 074°01'0 0.0
2017-Oct-15 14:00N 40°45' W 074°01'0 0.0
2017-Oct-15 13:28N 40°45' W 074°01'0 0.0
2017-Oct-15 12:58N 40°45' W 074°01'0 0.0
2017-Oct-15 12:28N 40°45' W 074°01'0 0.0
2017-Oct-15 11:59N 40°45' W 074°01'0 0.0
2017-Oct-15 11:29N 40°45' W 074°01'0 0.0
2017-Oct-15 10:57N 40°45' W 074°01'0 0.0
2017-Oct-15 10:29N 40°45' W 074°01'0 0.0
2017-Oct-15 09:53N 40°45' W 074°01'0 0.0
2017-Oct-15 09:27N 40°45' W 074°01'0 0.0
2017-Oct-15 09:00N 40°45' W 074°01'0 0.0
2017-Oct-15 08:24N 40°45' W 074°01'0 0.0
2017-Oct-15 08:00N 40°45' W 074°01'0 0.0
2017-Oct-15 07:29N 40°45' W 074°01'0 0.0
2017-Oct-15 06:58N 40°45' W 074°01'0 0.0
2017-Oct-15 06:27N 40°45' W 074°01'0 0.0
2017-Oct-15 05:53N 40°45' W 074°01'0 0.0
2017-Oct-15 05:28N 40°45' W 074°01'0 0.0
2017-Oct-15 04:58N 40°45' W 074°01'0 0.0
2017-Oct-15 04:27N 40°45' W 074°01'0 0.0
2017-Oct-15 03:57N 40°45' W 074°01'0 0.0
2017-Oct-15 03:30N 40°45' W 074°01'0 0.0
2017-Oct-15 02:59N 40°45' W 074°01'0 0.0
2017-Oct-15 02:25N 40°45' W 074°01'0 0.0
2017-Oct-15 01:54N 40°45' W 074°01'0 0.0
2017-Oct-15 01:29N 40°45' W 074°01'0 0.0
2017-Oct-15 00:59N 40°45' W 074°01'0 0.0
2017-Oct-15 00:28N 40°45' W 074°01'1 2.3
2017-Oct-15 00:01N 40°44' W 074°01'3 5.9
2017-Oct-14 23:30N 40°41' W 074°03'3 5.1
2017-Oct-14 23:00N 40°42' W 073°60'2 3.2
2017-Oct-14 22:31N 40°43' W 074°01'3 5.0
2017-Oct-14 22:00N 40°46' W 074°01'1 1.8
2017-Oct-14 21:29N 40°45' W 074°01'0 0.0
2017-Oct-14 21:00N 40°45' W 074°01'0 0.0
2017-Oct-14 20:30N 40°45' W 074°01'0 0.0
2017-Oct-14 20:00N 40°45' W 074°01'0 0.0
2017-Oct-14 19:30N 40°45' W 074°01'0 0.0
2017-Oct-14 19:00N 40°45' W 074°01'0 0.0
2017-Oct-14 18:28N 40°45' W 074°01'0 0.0
2017-Oct-14 18:00N 40°45' W 074°01'0 0.0
2017-Oct-14 17:25N 40°45' W 074°01'0 0.0
2017-Oct-14 16:57N 40°45' W 074°01'0 0.0
2017-Oct-14 16:25N 40°45' W 074°01'0 0.0
2017-Oct-14 16:00N 40°45' W 074°01'0 0.0
2017-Oct-14 15:30N 40°45' W 074°01'0 0.0
2017-Oct-14 14:58N 40°45' W 074°01'0 0.0
2017-Oct-14 14:23N 40°45' W 074°01'0 0.0
2017-Oct-14 13:57N 40°45' W 074°01'0 0.0
2017-Oct-14 13:28N 40°45' W 074°01'0 0.0
2017-Oct-14 12:57N 40°45' W 074°01'0 0.0
2017-Oct-14 12:28N 40°45' W 074°01'0 0.0
2017-Oct-14 11:54N 40°45' W 074°01'0 0.0
2017-Oct-14 11:28N 40°45' W 074°01'0 0.0
2017-Oct-14 10:59N 40°45' W 074°01'0 0.0
2017-Oct-14 10:23N 40°45' W 074°01'0 0.0
2017-Oct-14 10:00N 40°45' W 074°01'0 0.0
2017-Oct-14 09:30N 40°45' W 074°01'0 0.0
2017-Oct-14 08:58N 40°45' W 074°01'0 0.0
2017-Oct-14 08:28N 40°45' W 074°01'0 0.0
2017-Oct-14 07:54N 40°45' W 074°01'0 0.0
2017-Oct-14 07:28N 40°45' W 074°01'0 0.0
2017-Oct-14 06:58N 40°45' W 074°01'0 0.0
2017-Oct-14 06:27N 40°45' W 074°01'0 0.0
2017-Oct-14 05:57N 40°45' W 074°01'0 0.0
2017-Oct-14 05:30N 40°45' W 074°01'0 0.0
2017-Oct-14 04:55N 40°45' W 074°01'0 0.0
2017-Oct-14 04:24N 40°45' W 074°01'0 0.0
2017-Oct-14 04:00N 40°45' W 074°01'0 0.0
2017-Oct-14 03:30N 40°45' W 074°01'0 0.0
2017-Oct-14 02:58N 40°45' W 074°01'0 0.0
2017-Oct-14 02:24N 40°45' W 074°01'0 0.0
2017-Oct-14 01:59N 40°45' W 074°01'0 0.0
2017-Oct-14 01:29N 40°45' W 074°01'0 0.0
2017-Oct-14 00:58N 40°45' W 074°01'0 0.0
2017-Oct-14 00:23N 40°45' W 074°01'0 0.0
2017-Oct-13 23:58N 40°45' W 074°01'0 0.0
2017-Oct-13 23:30N 40°45' W 074°01'0 0.0
2017-Oct-13 22:55N 40°45' W 074°01'0 0.0
2017-Oct-13 22:29N 40°45' W 074°01'0 0.0
2017-Oct-13 21:53N 40°45' W 074°01'0 0.0
2017-Oct-13 21:28N 40°45' W 074°01'0 0.0
2017-Oct-13 20:55N 40°45' W 074°01'0 0.0
2017-Oct-13 20:23N 40°45' W 074°01'0 0.0
2017-Oct-13 19:45N 40°45' W 074°01'0 0.0
2017-Oct-13 19:29N 40°45' W 074°01'0 0.0
2017-Oct-13 18:57N 40°45' W 074°01'0 0.0
2017-Oct-13 18:25N 40°45' W 074°01'0 0.0
2017-Oct-13 17:54N 40°45' W 074°01'0 0.0
2017-Oct-13 17:30N 40°45' W 074°01'0 0.0
2017-Oct-13 16:58N 40°45' W 074°01'0 0.0
2017-Oct-13 16:26N 40°45' W 074°01'0 0.0
2017-Oct-13 15:59N 40°45' W 074°01'0 0.0
2017-Oct-13 15:28N 40°45' W 074°01'0 0.0
2017-Oct-13 14:55N 40°45' W 074°01'0 0.0
2017-Oct-13 14:26N 40°45' W 074°01'0 0.0
2017-Oct-13 13:59N 40°45' W 074°01'0 0.0
2017-Oct-13 13:29N 40°45' W 074°01'0 0.0
2017-Oct-13 12:58N 40°45' W 074°01'0 0.0
2017-Oct-13 12:25N 40°45' W 074°01'0 0.0
2017-Oct-13 11:54N 40°45' W 074°01'0 0.0
2017-Oct-13 11:30N 40°45' W 074°01'0 0.0
2017-Oct-13 10:56N 40°45' W 074°01'0 0.0
2017-Oct-13 10:30N 40°45' W 074°01'0 0.0
2017-Oct-13 10:00N 40°45' W 074°01'0 0.0
2017-Oct-13 09:28N 40°45' W 074°01'0 0.0
2017-Oct-13 08:58N 40°45' W 074°01'0 0.0
2017-Oct-13 08:27N 40°45' W 074°01'0 0.0
2017-Oct-13 07:58N 40°45' W 074°01'0 0.0
2017-Oct-13 07:28N 40°45' W 074°01'0 0.0
2017-Oct-13 06:56N 40°45' W 074°01'0 0.0
2017-Oct-13 06:27N 40°45' W 074°01'0 0.0
2017-Oct-13 05:59N 40°45' W 074°01'0 0.0
2017-Oct-13 05:30N 40°45' W 074°01'0 0.0
2017-Oct-13 04:59N 40°45' W 074°01'0 0.0
2017-Oct-13 04:27N 40°45' W 074°01'0 0.0
2017-Oct-13 03:59N 40°45' W 074°01'0 0.0
2017-Oct-13 03:29N 40°45' W 074°01'0 0.0
2017-Oct-13 02:57N 40°45' W 074°01'0 0.0
2017-Oct-13 02:29N 40°45' W 074°01'0 0.0
2017-Oct-13 01:59N 40°45' W 074°01'0 0.0
2017-Oct-13 01:27N 40°45' W 074°01'0 0.0
2017-Oct-13 01:00N 40°45' W 074°01'1 1.5
2017-Oct-13 00:30N 40°44' W 074°01'2 4.7
2017-Oct-13 00:00N 40°42' W 074°02'1 1.3
2017-Oct-12 23:30N 40°42' W 074°01'2 4.9
2017-Oct-12 23:00N 40°43' W 073°58'2 4.4
2017-Oct-12 22:29N 40°42' W 074°01'3 6.0
2017-Oct-12 22:00N 40°45' W 074°01'0 0.3
2017-Oct-12 21:30N 40°45' W 074°01'0 0.0
2017-Oct-12 21:00N 40°45' W 074°01'0 0.0
2017-Oct-12 20:30N 40°45' W 074°01'0 0.0
2017-Oct-12 20:00N 40°45' W 074°01'0 0.0
2017-Oct-12 19:28N 40°45' W 074°01'0 0.0
2017-Oct-12 19:00N 40°45' W 074°01'0 0.0
2017-Oct-12 18:26N 40°45' W 074°01'0 0.0
2017-Oct-12 17:59N 40°45' W 074°01'0 0.0
2017-Oct-12 17:30N 40°45' W 074°01'0 0.0
2017-Oct-12 16:57N 40°45' W 074°01'0 0.0
2017-Oct-12 16:24N 40°45' W 074°01'0 0.0
2017-Oct-12 15:56N 40°45' W 074°01'0 0.0
2017-Oct-12 15:30N 40°45' W 074°01'0 0.0
2017-Oct-12 14:57N 40°45' W 074°01'0 0.0
2017-Oct-12 14:27N 40°45' W 074°01'0 0.0
2017-Oct-12 13:53N 40°45' W 074°01'0 0.0
2017-Oct-12 13:30N 40°45' W 074°01'0 0.0
2017-Oct-12 12:56N 40°45' W 074°01'0 0.0
2017-Oct-12 12:26N 40°45' W 074°01'0 0.0
2017-Oct-12 11:51N 40°45' W 074°01'0 0.0
2017-Oct-12 11:30N 40°45' W 074°01'0 0.0
2017-Oct-12 10:57N 40°45' W 074°01'0 0.0
2017-Oct-12 10:24N 40°45' W 074°01'0 0.0
2017-Oct-12 09:54N 40°45' W 074°01'0 0.0
2017-Oct-12 09:28N 40°45' W 074°01'0 0.0
2017-Oct-12 08:56N 40°45' W 074°01'0 0.0
2017-Oct-12 08:27N 40°45' W 074°01'0 0.0
2017-Oct-12 08:00N 40°45' W 074°01'0 0.0
2017-Oct-12 07:25N 40°45' W 074°01'0 0.0
2017-Oct-12 06:59N 40°45' W 074°01'0 0.0
2017-Oct-12 06:25N 40°45' W 074°01'0 0.0
2017-Oct-12 05:59N 40°45' W 074°01'0 0.0
2017-Oct-12 05:28N 40°45' W 074°01'0 0.0
2017-Oct-12 04:55N 40°45' W 074°01'0 0.0
2017-Oct-12 04:28N 40°45' W 074°01'0 0.0
2017-Oct-12 03:59N 40°45' W 074°01'0 0.0
2017-Oct-12 03:29N 40°45' W 074°01'0 0.0
2017-Oct-12 02:58N 40°45' W 074°01'0 0.0
2017-Oct-12 02:28N 40°45' W 074°01'0 0.0
2017-Oct-12 01:57N 40°45' W 074°01'0 0.9
2017-Oct-12 01:30N 40°44' W 074°01'2 4.8
2017-Oct-12 01:00N 40°42' W 074°02'0 0.6
2017-Oct-12 00:30N 40°42' W 074°01'3 6.0
2017-Oct-12 00:00N 40°44' W 073°58'2 4.1
2017-Oct-11 23:30N 40°42' W 073°60'3 5.1
2017-Oct-11 23:00N 40°45' W 074°01'0 0.4
2017-Oct-11 22:30N 40°45' W 074°01'0 0.0
2017-Oct-11 22:00N 40°45' W 074°01'0 0.0
2017-Oct-11 21:29N 40°45' W 074°01'0 0.0
2017-Oct-11 20:56N 40°45' W 074°01'0 0.0
2017-Oct-11 20:24N 40°45' W 074°01'0 0.0
2017-Oct-11 20:00N 40°45' W 074°01'0 0.0
2017-Oct-11 19:29N 40°45' W 074°01'0 0.0
2017-Oct-11 18:58N 40°45' W 074°01'0 0.0
2017-Oct-11 18:29N 40°45' W 074°01'0 0.0
2017-Oct-11 17:59N 40°45' W 074°01'0 0.0
2017-Oct-11 17:30N 40°45' W 074°01'0 0.0
2017-Oct-11 16:55N 40°45' W 074°01'2 0.1
2017-Oct-11 00:00N 40°44' W 073°58'2 3.4
2017-Oct-10 23:30N 40°42' W 073°59'2 3.9
2017-Oct-10 23:01N 40°44' W 074°01'1 2.6
2017-Oct-10 22:31N 40°45' W 074°01'0 0.0
2017-Oct-10 21:59N 40°45' W 074°01'0 0.0
2017-Oct-10 21:30N 40°45' W 074°01'0 0.0
2017-Oct-10 21:00N 40°45' W 074°01'0 0.0
2017-Oct-10 20:30N 40°45' W 074°01'0 0.0
2017-Oct-10 19:58N 40°45' W 074°01'0 0.0
2017-Oct-10 19:30N 40°45' W 074°01'0 0.0
2017-Oct-10 18:58N 40°45' W 074°01'0 0.0
2017-Oct-10 18:25N 40°45' W 074°01'0 0.0
2017-Oct-10 17:53N 40°45' W 074°01'0 0.0
2017-Oct-10 17:27N 40°45' W 074°01'0 0.0
2017-Oct-10 17:00N 40°45' W 074°01'0 0.0
2017-Oct-10 16:23N 40°45' W 074°01'0 0.0
2017-Oct-10 16:00N 40°45' W 074°01'0 0.0
2017-Oct-10 15:30N 40°45' W 074°01'0 0.0
2017-Oct-10 14:56N 40°45' W 074°01'0 0.0
2017-Oct-10 13:53N 40°45' W 074°01'0 0.0
2017-Oct-10 13:28N 40°45' W 074°01'0 0.0
2017-Oct-10 12:55N 40°45' W 074°01'0 0.0
2017-Oct-10 12:24N 40°45' W 074°01'0 0.0
2017-Oct-10 11:59N 40°45' W 074°01'0 0.0
2017-Oct-10 11:27N 40°45' W 074°01'0 0.0
2017-Oct-10 10:58N 40°45' W 074°01'0 0.0
2017-Oct-10 10:23N 40°45' W 074°01'0 0.0
2017-Oct-10 09:57N 40°45' W 074°01'0 0.0
2017-Oct-10 09:30N 40°45' W 074°01'0 0.0
2017-Oct-10 08:58N 40°45' W 074°01'0 0.0
2017-Oct-10 08:28N 40°45' W 074°01'0 0.0
2017-Oct-10 08:00N 40°45' W 074°01'0 0.0
2017-Oct-10 07:28N 40°45' W 074°01'0 0.0
2017-Oct-10 06:58N 40°45' W 074°01'0 0.0
2017-Oct-10 06:29N 40°45' W 074°01'0 0.0
2017-Oct-10 05:54N 40°45' W 074°01'0 0.0
2017-Oct-10 05:30N 40°45' W 074°01'0 0.0
2017-Oct-10 04:56N 40°45' W 074°01'0 0.0
2017-Oct-10 04:24N 40°45' W 074°01'0 0.0
2017-Oct-10 03:54N 40°45' W 074°01'0 0.0
2017-Oct-10 03:29N 40°45' W 074°01'0 0.0
2017-Oct-10 02:59N 40°45' W 074°01'0 0.0
2017-Oct-10 02:29N 40°45' W 074°01'0 0.0
2017-Oct-10 02:00N 40°45' W 074°01'0 0.0
2017-Oct-10 01:30N 40°45' W 074°01'0 0.0
2017-Oct-10 00:56N 40°45' W 074°01'0 0.0
2017-Oct-10 00:24N 40°45' W 074°01'0 0.0
2017-Oct-10 00:00N 40°45' W 074°01'0 0.0
2017-Oct-09 23:29N 40°45' W 074°01'0 0.0
2017-Oct-09 22:59N 40°45' W 074°01'0 0.0
2017-Oct-09 22:29N 40°45' W 074°01'0 0.0
2017-Oct-09 21:53N 40°45' W 074°01'0 0.0
2017-Oct-09 21:30N 40°45' W 074°01'0 0.0
2017-Oct-09 20:55N 40°45' W 074°01'0 0.0
2017-Oct-09 20:24N 40°45' W 074°01'0 0.0
2017-Oct-09 20:00N 40°45' W 074°01'0 0.0
2017-Oct-09 19:28N 40°45' W 074°01'0 0.0
2017-Oct-09 18:55N 40°45' W 074°01'0 0.0
2017-Oct-09 18:30N 40°45' W 074°01'0 0.0
2017-Oct-09 18:00N 40°45' W 074°01'1 1.7
2017-Oct-09 17:30N 40°44' W 074°01'3 5.8
2017-Oct-09 17:00N 40°41' W 074°02'3 5.4
2017-Oct-09 16:30N 40°44' W 074°01'1 2.1
2017-Oct-09 16:00N 40°45' W 074°01'0 0.0
2017-Oct-09 15:30N 40°45' W 074°01'0 0.0
2017-Oct-09 15:00N 40°45' W 074°01'0 0.0
2017-Oct-09 14:30N 40°45' W 074°01'0 0.0
2017-Oct-09 13:58N 40°45' W 074°01'0 0.0
2017-Oct-09 13:27N 40°45' W 074°01'0 0.0
2017-Oct-09 12:57N 40°45' W 074°01'0 0.0
2017-Oct-09 12:07N 40°45' W 074°01'0 0.0
2017-Oct-09 11:59N 40°45' W 074°01'0 0.0
2017-Oct-09 11:29N 40°45' W 074°01'0 0.0
2017-Oct-09 10:58N 40°45' W 074°01'0 0.0
2017-Oct-09 10:23N 40°45' W 074°01'0 0.0
2017-Oct-09 09:59N 40°45' W 074°01'0 0.0
2017-Oct-09 09:30N 40°45' W 074°01'0 0.0
2017-Oct-09 08:59N 40°45' W 074°01'0 0.0
2017-Oct-09 08:27N 40°45' W 074°01'0 0.0
2017-Oct-09 07:57N 40°45' W 074°01'0 0.0
2017-Oct-09 07:29N 40°45' W 074°01'0 0.0
2017-Oct-09 06:57N 40°45' W 074°01'0 0.0
2017-Oct-09 06:23N 40°45' W 074°01'0 0.0
2017-Oct-09 05:54N 40°45' W 074°01'0 0.0
2017-Oct-09 05:30N 40°45' W 074°01'  

Dump ship's entire track history